createdAt,value
2023-05-22T00:02:25.307Z,2.58
2023-05-22T00:04:51.997Z,2.85
2023-05-22T00:07:18.948Z,2.88
2023-05-22T00:09:48.845Z,2.95
2023-05-22T00:12:15.574Z,3.03
2023-05-22T00:14:42.255Z,2.72
2023-05-22T00:17:10.312Z,3.10
2023-05-22T00:19:38.423Z,3.40
2023-05-22T00:22:05.767Z,3.15
2023-05-22T00:24:32.534Z,2.80
2023-05-22T00:27:00.827Z,2.85
2023-05-22T00:29:27.857Z,2.92
2023-05-22T00:31:56.929Z,3.50
2023-05-22T00:34:23.828Z,2.55
2023-05-22T00:36:50.683Z,3.10
2023-05-22T00:39:17.576Z,3.03
2023-05-22T00:41:46.192Z,2.80
2023-05-22T00:44:13.168Z,2.85
2023-05-22T00:46:40.096Z,2.70
2023-05-22T00:49:06.953Z,2.63
2023-05-22T00:51:34.802Z,3.72
2023-05-22T00:54:03.210Z,3.28
2023-05-22T00:56:33.571Z,3.53
2023-05-22T00:59:00.738Z,3.90
2023-05-22T01:01:33.683Z,3.53
2023-05-22T01:04:02.096Z,3.15
2023-05-22T01:06:32.430Z,3.83
2023-05-22T01:09:02.890Z,3.63
2023-05-22T01:11:47.248Z,3.58
2023-05-22T01:14:32.533Z,3.47
2023-05-22T01:17:22.747Z,3.85
2023-05-22T01:20:14.315Z,3.00
2023-05-22T01:22:42.655Z,3.45
2023-05-22T01:25:28.214Z,3.05
2023-05-22T01:28:25.795Z,3.42
2023-05-22T01:31:09.121Z,3.40
2023-05-22T01:33:45.802Z,3.10
2023-05-22T01:36:22.404Z,3.42
2023-05-22T01:38:53.207Z,3.20
2023-05-22T01:41:21.660Z,3.22
2023-05-22T01:43:48.626Z,3.70
2023-05-22T01:46:16.886Z,3.40
2023-05-22T01:48:46.228Z,3.50
2023-05-22T01:51:21.105Z,3.70
2023-05-22T01:54:14.593Z,3.55
2023-05-22T01:57:06.358Z,3.35
2023-05-22T01:59:40.039Z,4.15
2023-05-22T02:02:09.750Z,3.60
2023-05-22T02:04:42.523Z,3.58
2023-05-22T02:07:12.674Z,3.45
2023-05-22T02:09:42.081Z,3.40
2023-05-22T02:12:12.980Z,3.42
2023-05-22T02:14:41.388Z,3.33
2023-05-22T02:17:09.018Z,3.70
2023-05-22T02:19:36.359Z,3.67
2023-05-22T02:22:03.896Z,3.58
2023-05-22T02:24:32.261Z,3.63
2023-05-22T02:27:00.997Z,3.50
2023-05-22T02:29:27.999Z,3.40
2023-05-22T02:31:55.002Z,3.03
2023-05-22T02:34:21.880Z,3.33
2023-05-22T02:36:51.150Z,3.47
2023-05-22T02:39:22.526Z,3.60
2023-05-22T02:41:49.679Z,3.47
2023-05-22T02:44:16.668Z,3.17
2023-05-22T02:46:43.677Z,3.25
2023-05-22T02:49:10.984Z,3.65
2023-05-22T02:51:37.906Z,3.72
2023-05-22T02:54:05.169Z,3.83
2023-05-22T02:56:32.770Z,3.80
2023-05-22T02:59:00.094Z,3.33
2023-05-22T03:01:27.035Z,4.05
2023-05-22T03:03:55.090Z,3.45
2023-05-22T03:06:23.209Z,4.28
2023-05-22T03:08:49.939Z,3.20
2023-05-22T03:11:16.585Z,3.30
2023-05-22T03:13:43.620Z,3.40
2023-05-22T03:16:10.394Z,3.85
2023-05-22T03:18:42.534Z,3.50
2023-05-22T03:21:09.271Z,3.78
2023-05-22T03:23:36.087Z,3.95
2023-05-22T03:26:02.848Z,3.75
2023-05-22T03:28:33.797Z,3.42
2023-05-22T03:31:01.144Z,3.50
2023-05-22T03:33:35.647Z,5.35
2023-05-22T03:36:03.624Z,3.42
2023-05-22T03:38:30.812Z,3.35
2023-05-22T03:40:57.470Z,3.50
2023-05-22T03:43:26.824Z,3.95
2023-05-22T03:45:53.826Z,3.55
2023-05-22T03:48:21.009Z,3.97
2023-05-22T03:50:51.559Z,3.88
2023-05-22T03:53:21.247Z,3.90
2023-05-22T03:55:50.975Z,3.67
2023-05-22T03:58:21.099Z,3.45
2023-05-22T04:00:47.817Z,3.95
2023-05-22T04:03:19.940Z,3.70
2023-05-22T04:05:48.637Z,4.45
2023-05-22T04:08:15.533Z,3.83
2023-05-22T04:10:46.575Z,4.03
2023-05-22T04:13:13.981Z,3.70
2023-05-22T04:15:47.045Z,4.30
2023-05-22T04:18:16.569Z,4.05
2023-05-22T04:20:43.320Z,4.43
2023-05-22T04:23:10.092Z,4.13
2023-05-22T04:25:38.020Z,3.92
2023-05-22T04:28:04.935Z,4.10
2023-05-22T04:30:37.534Z,3.80
2023-05-22T04:33:06.916Z,5.65
2023-05-22T04:35:34.422Z,3.95
2023-05-22T04:38:08.555Z,3.58
2023-05-22T04:40:38.033Z,3.47
2023-05-22T04:43:06.263Z,4.00
2023-05-22T04:45:33.359Z,4.28
2023-05-22T04:48:02.746Z,3.63
2023-05-22T04:50:33.538Z,3.53
2023-05-22T04:53:00.629Z,4.22
2023-05-22T04:55:27.474Z,3.50
2023-05-22T04:57:57.022Z,3.60
2023-05-22T05:00:28.391Z,3.15
2023-05-22T05:02:55.588Z,4.18
2023-05-22T05:05:22.471Z,3.60
2023-05-22T05:07:50.433Z,3.50
2023-05-22T05:10:19.537Z,3.00
2023-05-22T05:12:46.331Z,2.67
2023-05-22T05:15:13.175Z,2.70
2023-05-22T05:17:40.080Z,3.10
2023-05-22T05:20:08.279Z,2.95
2023-05-22T05:22:35.143Z,3.22
2023-05-22T05:25:05.475Z,3.28
2023-05-22T05:27:33.010Z,3.08
2023-05-22T05:30:00.264Z,3.60
2023-05-22T05:32:38.677Z,2.90
2023-05-22T05:35:17.958Z,2.80
2023-05-22T05:38:01.845Z,2.65
2023-05-22T05:40:29.580Z,2.63
2023-05-22T05:42:56.298Z,2.90
2023-05-22T05:45:26.244Z,2.92
2023-05-22T05:47:53.239Z,2.90
2023-05-22T05:50:20.345Z,3.08
2023-05-22T05:52:47.682Z,2.78
2023-05-22T05:55:17.155Z,2.80
2023-05-22T05:57:44.146Z,3.20
2023-05-22T06:00:16.091Z,3.03
2023-05-22T06:02:47.039Z,2.60
2023-05-22T06:05:34.176Z,2.83
2023-05-22T06:08:13.651Z,2.80
2023-05-22T06:10:41.502Z,2.50
2023-05-22T06:13:28.498Z,2.75
2023-05-22T06:15:55.625Z,3.13
2023-05-22T06:18:25.291Z,3.08
2023-05-22T06:20:53.343Z,2.92
2023-05-22T06:23:20.195Z,2.80
2023-05-22T06:25:47.254Z,2.80
2023-05-22T06:28:15.689Z,2.65
2023-05-22T06:30:42.945Z,3.42
2023-05-22T06:33:14.631Z,3.00
2023-05-22T06:35:42.272Z,2.65
2023-05-22T06:38:09.454Z,3.20
2023-05-22T06:40:38.778Z,3.00
2023-05-22T06:43:18.792Z,3.05
2023-05-22T06:45:58.903Z,2.75
2023-05-22T06:48:49.463Z,2.90
2023-05-22T06:51:22.374Z,2.28
2023-05-22T06:53:52.329Z,2.47
2023-05-22T06:56:24.816Z,3.13
2023-05-22T06:59:07.262Z,2.25
2023-05-22T07:04:37.307Z,2.47
2023-05-22T07:07:11.542Z,2.58
2023-05-22T07:09:38.776Z,2.42
2023-05-22T07:12:06.568Z,2.30
2023-05-22T07:14:33.705Z,2.45
2023-05-22T07:17:00.675Z,2.38
2023-05-22T07:19:33.122Z,2.30
2023-05-22T07:22:03.062Z,2.17
2023-05-22T07:24:31.934Z,3.20
2023-05-22T07:26:59.948Z,1.75
2023-05-22T07:29:26.870Z,2.00
2023-05-22T07:31:55.187Z,2.10
2023-05-22T07:34:31.695Z,1.98
2023-05-22T07:37:01.184Z,1.95
2023-05-22T07:39:28.864Z,1.90
2023-05-22T07:41:57.530Z,1.83
2023-05-22T07:44:26.255Z,1.58
2023-05-22T07:46:54.439Z,1.58
2023-05-22T07:49:24.186Z,1.50
2023-05-22T07:51:52.253Z,1.70
2023-05-22T07:54:20.935Z,1.70
2023-05-22T07:56:52.087Z,1.40
2023-05-22T07:59:21.583Z,1.52
2023-05-22T08:01:48.346Z,1.60
2023-05-22T08:04:15.441Z,1.42
2023-05-22T08:06:43.896Z,1.42
2023-05-22T08:09:11.095Z,1.17
2023-05-22T08:11:40.177Z,1.55
2023-05-22T08:14:07.743Z,1.50
2023-05-22T08:16:34.932Z,1.50
2023-05-22T08:19:02.133Z,1.67
2023-05-22T08:21:30.466Z,1.40
2023-05-22T08:23:57.369Z,1.15
2023-05-22T08:26:27.380Z,1.50
2023-05-22T08:28:54.268Z,1.55
2023-05-22T08:31:21.188Z,3.95
2023-05-22T08:33:48.091Z,1.58
2023-05-22T08:36:14.880Z,1.40
2023-05-22T08:38:41.874Z,1.52
2023-05-22T08:41:18.006Z,1.40
2023-05-22T08:43:54.931Z,1.60
2023-05-22T08:46:38.833Z,1.65
2023-05-22T08:49:06.166Z,1.50
2023-05-22T08:51:34.414Z,1.70
2023-05-22T08:54:04.799Z,1.60
2023-05-22T08:56:33.330Z,1.85
2023-05-22T08:59:00.688Z,1.30
2023-05-22T09:01:32.628Z,1.45
2023-05-22T09:04:06.111Z,1.40
2023-05-22T09:06:33.204Z,1.77
2023-05-22T09:09:08.038Z,1.45
2023-05-22T09:14:20.464Z,3.00
2023-05-22T09:16:54.032Z,1.33
2023-05-22T09:19:21.487Z,1.60
2023-05-22T09:22:04.838Z,1.40
2023-05-22T09:24:38.654Z,1.63
2023-05-22T09:27:12.872Z,1.55
2023-05-22T09:29:56.749Z,1.27
2023-05-22T09:32:24.672Z,1.40
2023-05-22T09:34:51.624Z,1.52
2023-05-22T09:37:18.731Z,1.40
2023-05-22T09:39:47.970Z,1.48
2023-05-22T09:42:18.160Z,2.10
2023-05-22T09:44:55.898Z,1.40
2023-05-22T09:47:22.889Z,1.52
2023-05-22T09:49:49.776Z,1.33
2023-05-22T09:52:18.261Z,1.50
2023-05-22T09:54:55.554Z,1.30
2023-05-22T09:57:24.652Z,1.30
2023-05-22T09:59:54.388Z,1.40
2023-05-22T10:02:26.330Z,1.15
2023-05-22T10:04:54.912Z,1.30
2023-05-22T10:07:31.178Z,1.80
2023-05-22T10:10:05.589Z,1.30
2023-05-22T10:12:36.216Z,1.70
2023-05-22T10:15:04.042Z,1.05
2023-05-22T10:17:31.765Z,1.20
2023-05-22T10:19:58.916Z,1.33
2023-05-22T10:22:29.163Z,1.38
2023-05-22T10:24:59.001Z,1.52
2023-05-22T10:27:26.105Z,1.75
2023-05-22T10:30:13.515Z,1.40
2023-05-22T10:32:58.169Z,1.85
2023-05-22T10:35:38.815Z,1.40
2023-05-22T10:38:35.841Z,1.20
2023-05-22T10:41:06.928Z,1.40
2023-05-22T10:43:39.723Z,1.70
2023-05-22T10:46:07.470Z,1.70
2023-05-22T10:48:39.360Z,1.73
2023-05-22T10:51:08.038Z,1.45
2023-05-22T10:53:36.049Z,1.50
2023-05-22T10:56:11.170Z,1.58
2023-05-22T10:58:38.313Z,1.40
2023-05-22T11:01:08.864Z,1.70
2023-05-22T11:03:57.497Z,1.77
2023-05-22T11:06:39.581Z,1.73
2023-05-22T11:09:48.752Z,1.30
2023-05-22T11:12:28.375Z,1.10
2023-05-22T11:14:57.993Z,1.52
2023-05-22T11:17:28.048Z,1.58
2023-05-22T11:20:06.108Z,1.42
2023-05-22T11:22:37.874Z,1.65
2023-05-22T11:25:15.255Z,1.10
2023-05-22T11:27:42.544Z,1.83
2023-05-22T11:30:10.689Z,1.45
2023-05-22T11:32:38.992Z,1.40
2023-05-22T11:35:08.351Z,1.38
2023-05-22T11:37:44.168Z,1.52
2023-05-22T11:40:13.503Z,1.52
2023-05-22T11:42:42.261Z,1.23
2023-05-22T11:45:09.322Z,1.70
2023-05-22T11:47:36.746Z,1.58
2023-05-22T11:50:06.610Z,1.73
2023-05-22T11:52:34.149Z,1.50
2023-05-22T11:55:01.328Z,1.33
2023-05-22T11:57:28.470Z,1.58
2023-05-22T11:59:58.230Z,1.40
2023-05-22T12:02:25.200Z,1.55
2023-05-22T12:04:56.156Z,1.30
2023-05-22T12:07:24.800Z,1.67
2023-05-22T12:09:56.480Z,1.55
2023-05-22T12:12:25.903Z,1.40
2023-05-22T12:14:52.995Z,2.25
2023-05-22T12:17:19.750Z,1.45
2023-05-22T12:19:48.978Z,1.60
2023-05-22T12:22:15.906Z,1.50
2023-05-22T12:24:47.364Z,1.45
2023-05-22T12:27:15.134Z,1.27
2023-05-22T12:29:43.476Z,1.50
2023-05-22T12:32:11.788Z,1.38
2023-05-22T12:34:46.572Z,1.27
2023-05-22T12:37:21.435Z,1.60
2023-05-22T12:40:00.633Z,1.52
2023-05-22T12:42:28.432Z,1.60
2023-05-22T12:44:57.066Z,1.20
2023-05-22T12:47:24.787Z,1.38
2023-05-22T12:49:56.965Z,1.65
2023-05-22T12:54:52.500Z,1.30
2023-05-22T12:57:19.192Z,1.05
2023-05-22T12:59:46.004Z,1.45
2023-05-22T13:02:12.691Z,1.10
2023-05-22T13:04:39.627Z,1.35
2023-05-22T13:07:09.301Z,1.05
2023-05-22T13:09:36.527Z,1.25
2023-05-22T13:12:03.335Z,1.60
2023-05-22T13:14:30.168Z,1.50
2023-05-22T13:16:57.114Z,1.00
2023-05-22T13:19:24.146Z,1.30
2023-05-22T13:21:53.505Z,1.38
2023-05-22T13:24:20.357Z,1.10
2023-05-22T13:26:47.183Z,1.58
2023-05-22T13:29:14.271Z,0.90
2023-05-22T13:31:41.189Z,1.33
2023-05-22T13:34:08.156Z,1.02
2023-05-22T13:36:35.124Z,1.52
2023-05-22T13:39:06.934Z,1.15
2023-05-22T13:41:34.277Z,1.10
2023-05-22T13:44:01.482Z,1.33
2023-05-22T13:46:28.513Z,1.40
2023-05-22T13:48:55.382Z,1.30
2023-05-22T13:51:22.081Z,1.20
2023-05-22T13:53:48.856Z,1.45
2023-05-22T13:56:15.721Z,1.45
2023-05-22T13:58:42.576Z,1.10
2023-05-22T14:01:10.102Z,1.50
2023-05-22T14:03:40.583Z,1.40
2023-05-22T14:06:09.109Z,1.30
2023-05-22T14:08:48.762Z,1.60
2023-05-22T14:11:16.478Z,1.58
2023-05-22T14:13:43.503Z,1.10
2023-05-22T14:16:16.347Z,1.33
2023-05-22T14:18:50.474Z,0.95
2023-05-22T14:21:19.615Z,1.33
2023-05-22T14:23:47.046Z,1.40
2023-05-22T14:26:15.234Z,1.15
2023-05-22T14:28:42.786Z,1.30
2023-05-22T14:31:09.823Z,1.08
2023-05-22T14:33:36.752Z,1.25
2023-05-22T14:36:03.853Z,1.17
2023-05-22T14:38:35.000Z,1.33
2023-05-22T14:41:04.239Z,1.38
2023-05-22T14:43:37.402Z,1.35
2023-05-22T14:46:04.489Z,1.40
2023-05-22T14:48:37.318Z,1.30
2023-05-22T14:51:04.331Z,1.63
2023-05-22T14:53:31.305Z,1.85
2023-05-22T14:55:58.142Z,2.50
2023-05-22T14:58:25.077Z,2.28
2023-05-22T15:00:51.814Z,5.80
2023-05-22T15:03:19.044Z,17.67
2023-05-22T15:05:45.907Z,5.50
2023-05-22T15:08:12.658Z,2.25
2023-05-22T15:10:39.440Z,5.78
2023-05-22T15:13:06.272Z,2.85
2023-05-22T15:15:33.298Z,2.03
2023-05-22T15:18:02.669Z,1.70
2023-05-22T15:20:29.657Z,2.00
2023-05-22T15:22:56.385Z,1.75
2023-05-22T15:25:23.296Z,1.80
2023-05-22T15:27:50.048Z,1.80
2023-05-22T15:30:17.356Z,1.75
2023-05-22T15:32:44.484Z,1.77
2023-05-22T15:35:14.046Z,1.98
2023-05-22T15:37:41.080Z,1.50
2023-05-22T15:40:09.892Z,1.77
2023-05-22T15:42:37.601Z,1.60
2023-05-22T15:45:04.640Z,1.92
2023-05-22T15:47:31.325Z,2.10
2023-05-22T15:49:58.342Z,1.60
2023-05-22T15:52:25.145Z,1.70
2023-05-22T15:54:56.412Z,1.90
2023-05-22T15:57:27.029Z,2.20
2023-05-22T15:59:53.717Z,6.07
2023-05-22T16:02:21.639Z,3.90
2023-05-22T16:04:49.362Z,4.47
2023-05-22T16:07:17.118Z,26.13
2023-05-22T16:09:44.578Z,9.52
2023-05-22T16:12:11.346Z,3.83
2023-05-22T16:14:39.870Z,2.45
2023-05-22T16:17:07.027Z,2.85
2023-05-22T16:19:33.882Z,2.55
2023-05-22T16:22:00.725Z,2.20
2023-05-22T16:24:27.521Z,2.10
2023-05-22T16:26:56.345Z,2.20
2023-05-22T16:29:23.440Z,1.83
2023-05-22T16:31:50.523Z,2.15
2023-05-22T16:34:18.260Z,1.48
2023-05-22T16:36:47.637Z,2.45
2023-05-22T16:39:15.664Z,2.13
2023-05-22T16:41:45.377Z,2.00
2023-05-22T16:44:12.574Z,1.77
2023-05-22T16:46:42.711Z,2.13
2023-05-22T16:49:12.193Z,1.70
2023-05-22T16:51:39.343Z,2.17
2023-05-22T16:54:28.259Z,2.40
2023-05-22T17:00:50.544Z,2.20
2023-05-22T17:07:02.400Z,1.90
2023-05-22T17:09:36.924Z,1.93
2023-05-22T17:12:12.444Z,1.90
2023-05-22T17:14:39.928Z,2.08
2023-05-22T17:17:07.019Z,2.15
2023-05-22T17:19:33.853Z,2.60
2023-05-22T17:22:00.991Z,2.30
2023-05-22T17:24:27.889Z,1.77
2023-05-22T17:26:54.647Z,2.25
2023-05-22T17:29:28.274Z,3.17
2023-05-22T17:31:57.545Z,2.30
2023-05-22T17:34:24.401Z,1.98
2023-05-22T17:36:53.507Z,2.13
2023-05-22T17:39:22.709Z,1.98
2023-05-22T17:42:01.030Z,2.35
2023-05-22T17:44:38.863Z,2.28
2023-05-22T17:47:10.226Z,2.13
2023-05-22T17:49:43.215Z,2.10
2023-05-22T17:52:15.266Z,2.30
2023-05-22T17:54:46.160Z,2.35
2023-05-22T18:01:21.829Z,2.10
2023-05-22T18:03:26.795Z,2.35
2023-05-22T18:04:23.015Z,2.60
2023-05-22T18:10:54.282Z,2.40
2023-05-22T18:14:10.622Z,2.17
2023-05-22T18:17:04.457Z,2.67
2023-05-22T18:19:49.898Z,2.63
2023-05-22T18:22:40.999Z,2.70
2023-05-22T18:25:21.873Z,2.50
2023-05-22T18:28:20.841Z,2.53
2023-05-22T18:30:50.737Z,2.60
2023-05-22T18:33:20.374Z,2.72
2023-05-22T18:36:00.810Z,2.70
2023-05-22T18:39:34.837Z,2.65
2023-05-22T18:42:10.287Z,2.85
2023-05-22T18:45:02.644Z,3.15
2023-05-22T18:48:20.703Z,2.30
2023-05-22T18:50:47.962Z,2.78
2023-05-22T18:53:15.118Z,2.90
2023-05-22T18:55:43.356Z,3.08
2023-05-22T18:58:16.292Z,2.58
2023-05-22T19:04:50.212Z,3.10
2023-05-22T19:07:43.007Z,3.03
2023-05-22T19:10:15.957Z,3.35
2023-05-22T19:15:50.135Z,2.92
2023-05-22T19:18:17.894Z,3.03
2023-05-22T19:20:48.128Z,2.95
2023-05-22T19:23:15.584Z,2.85
2023-05-22T19:25:44.506Z,3.38
2023-05-22T19:28:16.940Z,3.20
2023-05-22T19:30:44.067Z,3.20
2023-05-22T19:33:11.934Z,3.35
2023-05-22T19:35:39.039Z,4.28
2023-05-22T19:38:06.111Z,3.80
2023-05-22T19:40:35.497Z,3.85
2023-05-22T19:43:05.498Z,4.00
2023-05-22T19:45:35.649Z,3.80
2023-05-22T19:48:04.757Z,4.97
2023-05-22T19:51:14.910Z,4.95
2023-05-22T19:53:59.301Z,4.65
2023-05-22T19:56:30.355Z,4.93
2023-05-22T19:59:09.526Z,5.00
2023-05-22T20:02:08.672Z,5.50
2023-05-22T20:04:47.110Z,5.32
2023-05-22T20:07:35.941Z,5.55
2023-05-22T20:10:17.292Z,5.72
2023-05-22T20:12:44.204Z,5.32
2023-05-22T20:15:17.855Z,5.13
2023-05-22T20:17:50.102Z,5.82
2023-05-22T20:20:23.345Z,5.43
2023-05-22T20:23:17.620Z,5.10
2023-05-22T20:25:54.729Z,6.10
2023-05-22T20:28:44.738Z,5.82
2023-05-22T20:31:18.265Z,5.97
2023-05-22T20:33:52.770Z,5.45
2023-05-22T20:36:23.121Z,6.05
2023-05-22T20:38:55.857Z,5.93
2023-05-22T20:41:51.285Z,5.65
2023-05-22T20:47:18.845Z,5.55
2023-05-22T20:49:50.309Z,5.38
2023-05-22T20:52:17.262Z,6.30
2023-05-22T20:54:49.772Z,5.38
2023-05-22T20:57:21.254Z,5.85
2023-05-22T20:59:52.430Z,5.65
2023-05-22T21:02:24.243Z,5.32
2023-05-22T21:04:51.280Z,5.70
2023-05-22T21:07:18.325Z,5.50
2023-05-22T21:09:55.505Z,5.18
2023-05-22T21:12:27.160Z,5.80
2023-05-22T21:14:53.960Z,5.60
2023-05-22T21:18:06.679Z,5.80
2023-05-22T21:20:53.446Z,5.40
2023-05-22T21:23:57.695Z,5.97
2023-05-22T21:26:29.877Z,5.70
2023-05-22T21:29:07.461Z,4.97
2023-05-22T21:31:39.879Z,4.78
2023-05-22T21:34:08.743Z,4.93
2023-05-22T21:36:41.288Z,4.85
2023-05-22T21:39:10.997Z,4.65
2023-05-22T21:41:47.164Z,4.80
2023-05-22T21:44:21.281Z,4.57
2023-05-22T21:46:48.584Z,4.78
2023-05-22T21:49:18.934Z,4.68
2023-05-22T21:51:50.906Z,4.30
2023-05-22T21:54:19.120Z,4.10
2023-05-22T21:56:52.865Z,4.18
2023-05-22T21:59:27.877Z,4.88
2023-05-22T22:01:58.818Z,4.32
2023-05-22T22:07:38.765Z,4.03
2023-05-22T22:10:27.478Z,3.70
2023-05-22T22:13:11.459Z,4.93
2023-05-22T22:15:41.277Z,4.63
2023-05-22T22:18:21.485Z,4.03
2023-05-22T22:20:54.073Z,4.05
2023-05-22T22:23:23.129Z,4.00
2023-05-22T22:25:50.181Z,4.03
2023-05-22T22:28:19.680Z,3.80
2023-05-22T22:30:47.968Z,3.88
2023-05-22T22:33:22.007Z,4.03
2023-05-22T22:35:52.000Z,4.43
2023-05-22T22:38:22.712Z,4.18
2023-05-22T22:40:51.860Z,4.22
2023-05-22T22:43:19.275Z,3.72
2023-05-22T22:45:53.472Z,4.20
2023-05-22T22:48:22.458Z,3.72
2023-05-22T22:50:54.652Z,4.50
2023-05-22T22:53:21.718Z,3.65
2023-05-22T22:55:50.915Z,3.50
2023-05-22T22:58:19.505Z,4.05
2023-05-22T23:00:46.601Z,3.58
2023-05-22T23:03:13.511Z,3.70
2023-05-22T23:05:41.103Z,3.55
2023-05-22T23:08:18.764Z,3.30
2023-05-22T23:10:45.908Z,3.60
2023-05-22T23:13:12.751Z,3.10
2023-05-22T23:15:41.272Z,3.00
2023-05-22T23:18:16.404Z,3.72
2023-05-22T23:20:43.822Z,3.38
2023-05-22T23:23:13.228Z,3.22
2023-05-22T23:25:43.379Z,3.30
2023-05-22T23:28:13.655Z,3.22
2023-05-22T23:30:40.923Z,2.97
2023-05-22T23:33:08.070Z,3.10
2023-05-22T23:35:35.345Z,2.92
2023-05-22T23:38:07.068Z,3.28
2023-05-22T23:40:34.327Z,2.88
2023-05-22T23:43:21.244Z,2.95
2023-05-22T23:45:48.439Z,3.00
2023-05-22T23:48:16.665Z,3.20
2023-05-22T23:50:43.774Z,2.65
2023-05-22T23:53:10.948Z,2.80
2023-05-22T23:55:44.792Z,2.78
2023-05-22T23:58:12.256Z,3.50
